Time;durP1;ratioP1;P1;durP2;ratioP2;P2;SDS_P1;SDS_P2;PMS_P1;PMS_P2;Temp;Humidity;BMP_temperature;BMP_pressure;BME280_temperature;BME280_humidity;BME280_pressure;Samples;Min_cycle;Max_cycle;Signal;HPM_P1;HPM_P2
2023/03/15 00:02:06;;;;;;;5.07;3.00;;;;;;;4.73;56.55;148497.91;5022761;28;20033;-67
2023/03/15 00:04:31;;;;;;;3.72;2.78;;;;;;;4.76;56.39;148505.53;5003620;28;20023;-67
2023/03/15 00:07:03;;;;;;;5.30;3.33;;;;;;;4.64;56.63;148477.47;5030995;28;20026;-67
2023/03/15 00:09:28;;;;;;;7.22;3.08;;;;;;;4.72;56.17;148496.63;5042390;28;20026;-68
2023/03/15 00:12:00;;;;;;;4.93;2.95;;;;;;;4.64;56.82;148477.47;5037179;28;20079;-67
2023/03/15 00:14:28;;;;;;;5.82;3.17;;;;;;;4.65;57.30;148480.03;5020895;28;20352;-66
2023/03/15 00:16:56;;;;;;;4.07;3.00;;;;;;;4.62;57.80;148472.38;5002847;28;20042;-66
2023/03/15 00:19:22;;;;;;;3.63;2.83;;;;;;;4.55;56.92;148454.50;5022406;28;20046;-67
2023/03/15 00:21:47;;;;;;;4.55;3.15;;;;;;;4.65;56.86;148480.03;5014183;28;20030;-67
2023/03/15 00:24:13;;;;;;;4.10;2.80;;;;;;;4.53;57.44;148449.38;5014514;28;20203;-68
2023/03/15 00:26:39;;;;;;;5.65;3.35;;;;;;;4.62;57.70;148472.38;5022646;28;20041;-68
2023/03/15 00:29:04;;;;;;;4.00;3.10;;;;;;;4.51;57.59;148444.31;5005880;28;20034;-68
2023/03/15 00:31:30;;;;;;;5.00;3.05;;;;;;;4.55;57.71;148453.25;5042026;28;20049;-69
2023/03/15 00:33:56;;;;;;;7.97;3.60;;;;;;;4.50;57.81;148441.72;5031856;28;20036;-68
2023/03/15 00:36:23;;;;;;;3.63;3.10;;;;;;;4.38;58.27;148412.41;5025565;28;20275;-67
2023/03/15 00:38:50;;;;;;;5.78;3.30;;;;;;;4.52;58.21;148445.56;5030020;28;20033;-67
2023/03/15 00:41:17;;;;;;;5.10;3.35;;;;;;;4.50;58.90;148441.72;5045702;28;20078;-67
2023/03/15 00:43:44;;;;;;;4.95;3.45;;;;;;;4.41;58.05;148420.03;5044796;28;20297;-67
2023/03/15 00:46:16;;;;;;;4.50;3.00;;;;;;;4.47;58.35;148435.34;5029492;28;20168;-67
2023/03/15 00:48:42;;;;;;;7.88;3.47;;;;;;;4.51;59.02;148444.31;5013304;28;20254;-68
2023/03/15 00:51:13;;;;;;;5.07;3.50;;;;;;;4.40;59.01;148417.47;5012898;28;20026;-67
2023/03/15 00:53:42;;;;;;;6.20;3.78;;;;;;;4.51;59.05;148443.03;5022421;28;20084;-67
2023/03/15 00:56:10;;;;;;;8.15;3.80;;;;;;;4.41;59.35;148418.78;5022712;28;20160;-67
2023/03/15 00:58:36;;;;;;;5.45;3.67;;;;;;;4.44;58.52;148427.69;5006776;28;20087;-67
2023/03/15 01:01:20;;;;;;;5.57;4.20;;;;;;;4.42;59.19;148422.59;5034224;28;20318;-67
2023/03/15 01:03:56;;;;;;;4.63;3.33;;;;;;;4.48;59.49;148436.66;5045277;28;20048;-68
2023/03/15 01:06:27;;;;;;;5.00;3.15;;;;;;;4.45;59.02;148429.00;5035314;28;20037;-69
2023/03/15 01:08:54;;;;;;;6.72;4.03;;;;;;;4.48;59.80;148436.66;5025576;28;20060;-68
2023/03/15 01:11:23;;;;;;;5.72;3.78;;;;;;;4.51;60.11;148444.31;5025642;28;20057;-65
2023/03/15 01:14:11;;;;;;;5.20;3.92;;;;;;;4.56;59.86;148455.78;5008513;28;20359;-68
2023/03/15 01:16:36;;;;;;;5.55;3.72;;;;;;;4.51;59.85;148444.31;5024337;28;20105;-67
2023/03/15 01:19:02;;;;;;;5.25;3.83;;;;;;;4.50;60.56;148441.72;5010500;28;20176;-67
2023/03/15 01:21:27;;;;;;;4.95;3.35;;;;;;;4.52;60.47;148446.88;5026936;28;20049;-67
2023/03/15 01:23:53;;;;;;;7.22;4.00;;;;;;;4.56;59.64;148455.78;5004996;28;20077;-67
2023/03/15 01:26:19;;;;;;;4.60;3.72;;;;;;;4.52;60.26;148446.88;5017534;28;20168;-68
2023/03/15 01:28:45;;;;;;;6.53;4.18;;;;;;;4.55;60.49;148453.25;5005695;28;20030;-68
2023/03/15 01:31:19;;;;;;;5.72;3.90;;;;;;;4.46;60.49;148432.81;5026070;28;20030;-67
2023/03/15 01:33:45;;;;;;;6.80;4.20;;;;;;;4.60;60.88;148466.00;5032719;28;20053;-66
2023/03/15 01:36:11;;;;;;;4.00;3.60;;;;;;;4.60;60.45;148467.28;5025346;28;20185;-67
2023/03/15 01:38:40;;;;;;;6.00;3.75;;;;;;;4.55;61.17;148454.50;5022432;28;20105;-68
2023/03/15 01:41:06;;;;;;;6.93;4.07;;;;;;;4.52;60.63;148446.88;5005491;28;20068;-66
2023/03/15 01:43:32;;;;;;;5.82;3.58;;;;;;;4.47;61.18;148434.09;5022326;28;20034;-67
2023/03/15 01:46:00;;;;;;;4.38;3.67;;;;;;;4.43;61.02;148425.19;5011735;28;20044;-67
2023/03/15 01:48:43;;;;;;;8.15;4.25;;;;;;;4.38;61.89;148411.13;5013808;28;20022;-68
2023/03/15 01:51:41;;;;;;;5.90;3.92;;;;;;;4.39;61.77;148413.66;5018214;28;20045;-67
2023/03/15 01:54:30;;;;;;;5.22;4.00;;;;;;;4.35;61.41;148403.44;5010554;28;20037;-67
2023/03/15 01:57:01;;;;;;;6.72;3.83;;;;;;;4.37;61.92;148408.56;5009805;28;20097;-66
2023/03/15 01:59:35;;;;;;;6.07;4.13;;;;;;;4.44;62.38;148427.69;5023946;28;20052;-67
2023/03/15 02:02:01;;;;;;;5.47;4.05;;;;;;;4.45;62.59;148429.00;5004980;28;20041;-66
2023/03/15 02:04:35;;;;;;;7.55;4.10;;;;;;;4.37;62.75;148408.56;5021085;28;20277;-66
2023/03/15 02:07:04;;;;;;;5.70;3.58;;;;;;;4.36;63.00;148406.00;5010820;28;20026;-66
2023/03/15 02:10:04;;;;;;;5.05;3.92;;;;;;;4.32;62.92;148398.34;5013771;28;20314;-66
2023/03/15 02:12:32;;;;;;;5.40;3.83;;;;;;;4.43;62.51;148425.19;5008314;28;20144;-67
2023/03/15 02:15:00;;;;;;;6.72;4.15;;;;;;;4.48;63.12;148436.66;5009160;28;20026;-66
2023/03/15 02:17:40;;;;;;;7.05;3.65;;;;;;;4.40;62.99;148416.22;5023557;28;20018;-67
2023/03/15 02:20:14;;;;;;;4.85;3.70;;;;;;;4.42;63.22;148421.34;5003491;28;20200;-67
2023/03/15 02:23:04;;;;;;;6.20;3.78;;;;;;;4.42;63.46;148421.34;5022326;28;20036;-68
2023/03/15 02:26:11;;;;;;;8.50;4.32;;;;;;;4.47;63.10;148434.09;5003848;28;20038;-68
2023/03/15 02:28:38;;;;;;;7.18;4.07;;;;;;;4.47;62.73;148434.09;5022306;28;20411;-68
2023/03/15 02:31:04;;;;;;;8.27;4.22;;;;;;;4.52;63.05;148445.56;5022116;28;20117;-66
2023/03/15 02:33:40;;;;;;;6.68;4.07;;;;;;;4.46;63.46;148432.81;5034228;28;20025;-68
2023/03/15 02:36:17;;;;;;;6.55;3.70;;;;;;;4.35;63.25;148403.44;5024071;28;20354;-68
2023/03/15 02:38:45;;;;;;;3.85;3.35;;;;;;;4.55;63.02;148454.50;5021359;28;20030;-67
2023/03/15 02:41:17;;;;;;;6.20;3.95;;;;;;;4.53;63.27;148448.13;5004097;28;20086;-68
2023/03/15 02:43:46;;;;;;;4.85;3.72;;;;;;;4.40;63.91;148417.47;5041040;28;20399;-68
2023/03/15 02:46:12;;;;;;;5.10;4.07;;;;;;;4.53;63.22;148449.38;5042892;28;20029;-67
2023/03/15 02:48:42;;;;;;;5.65;4.22;;;;;;;4.53;63.56;148448.13;5033107;28;20044;-67
2023/03/15 02:51:17;;;;;;;5.88;3.83;;;;;;;4.45;63.69;148429.00;5017842;28;20338;-69
2023/03/15 02:53:46;;;;;;;5.00;3.92;;;;;;;4.51;63.48;148444.31;5006180;28;20033;-67
2023/03/15 02:56:13;;;;;;;4.45;3.47;;;;;;;4.47;63.29;148434.09;5022882;28;20078;-66
2023/03/15 02:58:45;;;;;;;4.97;4.22;;;;;;;4.54;63.74;148451.94;5005348;28;20042;-67
2023/03/15 03:01:18;;;;;;;5.75;4.43;;;;;;;4.45;63.85;148429.00;5017994;28;20029;-68
2023/03/15 03:03:47;;;;;;;6.78;4.05;;;;;;;4.50;63.35;148441.72;5012357;28;20049;-66
2023/03/15 03:06:17;;;;;;;7.30;4.05;;;;;;;4.39;63.05;148413.66;5009600;28;20093;-68
2023/03/15 03:08:45;;;;;;;6.85;4.07;;;;;;;4.45;63.50;148429.00;5019943;28;20036;-68
2023/03/15 03:11:13;;;;;;;4.80;3.50;;;;;;;4.47;63.66;148435.34;5003719;28;20042;-68
2023/03/15 03:13:40;;;;;;;5.78;4.03;;;;;;;4.45;64.47;148429.00;5021251;28;20487;-67
2023/03/15 03:16:06;;;;;;;4.45;3.92;;;;;;;4.51;64.03;148444.31;5009461;28;20203;-67
2023/03/15 03:18:35;;;;;;;7.70;4.95;;;;;;;4.52;64.02;148446.88;5012211;28;20030;-67
2023/03/15 03:21:03;;;;;;;7.57;4.30;;;;;;;4.39;63.67;148414.97;5018770;28;20026;-67
2023/03/15 03:23:29;;;;;;;5.10;3.78;;;;;;;4.25;64.78;148380.50;5002362;28;20026;-67
2023/03/15 03:25:56;;;;;;;8.88;4.10;;;;;;;4.23;64.40;148375.41;5022941;28;20080;-67
2023/03/15 03:28:24;;;;;;;7.20;4.15;;;;;;;4.27;64.86;148385.56;5007105;28;20101;-67
2023/03/15 03:30:52;;;;;;;6.68;4.03;;;;;;;4.28;64.12;148386.88;5018552;28;20403;-67
2023/03/15 03:33:18;;;;;;;5.78;3.97;;;;;;;4.35;64.46;148403.44;5036097;28;20345;-68
2023/03/15 03:35:43;;;;;;;6.63;4.35;;;;;;;4.31;65.32;148395.78;5020766;28;20065;-68
2023/03/15 03:38:10;;;;;;;8.90;4.47;;;;;;;4.22;64.22;148372.84;5002349;28;20064;-67
2023/03/15 03:40:37;;;;;;;6.22;4.07;;;;;;;4.21;64.21;148369.03;5020369;28;20045;-68
2023/03/15 03:43:03;;;;;;;5.95;3.83;;;;;;;4.23;64.85;148374.09;5009970;28;20106;-68
2023/03/15 03:45:28;;;;;;;8.27;4.47;;;;;;;4.22;64.96;148372.84;5009995;28;20183;-67
2023/03/15 03:47:54;;;;;;;6.75;4.07;;;;;;;4.26;64.70;148381.75;5019720;28;20331;-67
2023/03/15 03:50:20;;;;;;;7.45;4.53;;;;;;;4.34;64.74;148400.94;5003258;28;20313;-68
2023/03/15 03:52:45;;;;;;;7.93;4.63;;;;;;;4.28;64.20;148388.16;5021492;28;20037;-67
2023/03/15 03:55:14;;;;;;;7.20;4.45;;;;;;;4.23;64.47;148375.41;5020548;28;20191;-68
2023/03/15 03:57:40;;;;;;;9.00;5.00;;;;;;;4.24;65.26;148377.94;5017307;28;20314;-66
2023/03/15 04:00:08;;;;;;;6.47;4.43;;;;;;;4.29;64.44;148390.72;5012081;28;20069;-67
2023/03/15 04:02:34;;;;;;;8.35;5.03;;;;;;;4.36;64.40;148407.31;5025530;28;20026;-67
2023/03/15 04:05:00;;;;;;;8.07;4.38;;;;;;;4.45;63.76;148429.00;5046347;28;20049;-68
2023/03/15 04:07:26;;;;;;;7.13;4.28;;;;;;;4.44;65.02;148427.69;5029213;28;20022;-66
2023/03/15 04:09:51;;;;;;;6.38;4.68;;;;;;;4.47;63.71;148434.09;5015870;28;20198;-67
2023/03/15 04:12:17;;;;;;;7.68;4.38;;;;;;;4.42;63.63;148422.59;5013336;28;20029;-67
2023/03/15 04:14:42;;;;;;;6.70;4.50;;;;;;;4.44;63.44;148427.69;5023226;28;20034;-67
2023/03/15 04:17:11;;;;;;;6.53;4.60;;;;;;;4.45;63.96;148429.00;5015827;28;20026;-68
2023/03/15 04:19:39;;;;;;;5.72;4.60;;;;;;;4.53;63.20;148448.13;5026266;28;20045;-68
2023/03/15 04:22:05;;;;;;;7.05;4.55;;;;;;;4.57;64.23;148459.59;5013375;28;20038;-68
2023/03/15 04:24:33;;;;;;;10.90;4.85;;;;;;;4.41;63.87;148420.03;5013493;28;20217;-67
2023/03/15 04:26:59;;;;;;;6.75;4.57;;;;;;;4.58;63.82;148462.16;5022798;28;20054;-66
2023/03/15 04:29:24;;;;;;;5.55;4.53;;;;;;;4.48;63.82;148436.66;5006165;28;20081;-69
2023/03/15 04:31:50;;;;;;;7.30;4.68;;;;;;;4.45;64.18;148429.00;5037555;28;20033;-68
2023/03/15 04:34:15;;;;;;;6.95;4.85;;;;;;;4.47;63.79;148434.09;5032005;28;20356;-69
2023/03/15 04:36:41;;;;;;;6.97;4.43;;;;;;;4.49;63.33;148440.47;5026053;28;20026;-68
2023/03/15 04:39:11;;;;;;;9.85;4.75;;;;;;;4.53;63.39;148448.13;5021373;28;20050;-68
2023/03/15 04:41:38;;;;;;;7.85;5.35;;;;;;;4.48;63.52;148436.66;5005174;28;20136;-67
2023/03/15 04:44:04;;;;;;;8.60;4.90;;;;;;;4.55;63.27;148453.25;5025853;28;20033;-68
2023/03/15 04:46:31;;;;;;;7.10;4.63;;;;;;;4.60;62.94;148467.28;5009999;28;20034;-68
2023/03/15 04:48:57;;;;;;;6.60;4.30;;;;;;;4.63;62.92;148474.94;5017508;28;20026;-68
2023/03/15 04:51:23;;;;;;;7.60;5.05;;;;;;;4.60;63.08;148467.28;5017745;28;20050;-68
2023/03/15 04:53:48;;;;;;;8.13;4.70;;;;;;;4.58;63.94;148462.16;5007698;28;20042;-68
2023/03/15 04:56:14;;;;;;;8.98;4.28;;;;;;;4.61;63.13;148469.81;5024735;28;20053;-68
2023/03/15 04:58:40;;;;;;;7.43;4.43;;;;;;;4.54;62.99;148450.69;5041884;28;20221;-68
2023/03/15 05:01:14;;;;;;;5.93;4.47;;;;;;;4.44;62.47;148426.44;5032650;28;20033;-67
2023/03/15 05:03:43;;;;;;;7.93;4.40;;;;;;;4.50;62.51;148441.72;5016058;28;20080;-68
2023/03/15 05:06:08;;;;;;;9.57;4.63;;;;;;;4.42;63.50;148422.59;5009592;28;20029;-67
2023/03/15 05:08:35;;;;;;;8.90;4.63;;;;;;;4.41;62.89;148418.78;5025195;28;20025;-67
2023/03/15 05:11:04;;;;;;;6.95;4.97;;;;;;;4.58;62.76;148460.91;5005475;28;20307;-67
2023/03/15 05:13:30;;;;;;;7.03;4.80;;;;;;;4.40;62.89;148416.22;5020354;28;20061;-68
2023/03/15 05:15:56;;;;;;;9.60;5.47;;;;;;;4.48;63.19;148437.91;5013364;28;20049;-67
2023/03/15 05:18:22;;;;;;;7.00;5.20;;;;;;;4.50;61.87;148441.72;5011829;28;20030;-68
2023/03/15 05:20:48;;;;;;;7.93;4.78;;;;;;;4.47;62.47;148435.34;5027931;28;20030;-67
2023/03/15 05:23:14;;;;;;;10.07;4.93;;;;;;;4.57;62.81;148458.34;5041139;28;20025;-67
2023/03/15 05:25:40;;;;;;;9.43;5.80;;;;;;;4.64;62.40;148477.47;5008224;28;20045;-70
2023/03/15 05:28:06;;;;;;;8.07;4.70;;;;;;;4.65;61.79;148478.78;5017544;28;20026;-68
2023/03/15 05:30:31;;;;;;;6.78;4.80;;;;;;;4.57;61.87;148458.34;5019641;28;20050;-68
2023/03/15 05:32:57;;;;;;;13.40;5.25;;;;;;;4.68;61.68;148485.16;5041743;28;20065;-68
2023/03/15 05:35:27;;;;;;;7.57;5.20;;;;;;;4.72;62.00;148496.63;5024821;28;20362;-68
2023/03/15 05:37:54;;;;;;;8.75;5.10;;;;;;;4.76;62.43;148505.53;5024491;28;20033;-68
2023/03/15 05:40:20;;;;;;;11.70;5.68;;;;;;;4.90;61.97;148540.03;5010582;28;20053;-67
2023/03/15 05:42:45;;;;;;;6.38;5.00;;;;;;;4.90;62.52;148540.03;5013987;28;20506;-66
2023/03/15 05:45:11;;;;;;;7.13;5.30;;;;;;;4.86;61.12;148531.13;5019666;28;20030;-66
2023/03/15 05:47:37;;;;;;;7.70;4.95;;;;;;;4.84;60.89;148525.97;5020280;28;20125;-65
2023/03/15 05:50:03;;;;;;;11.13;5.30;;;;;;;5.01;60.84;148569.38;5019939;28;20129;-67
2023/03/15 05:52:30;;;;;;;8.52;4.80;;;;;;;4.87;60.64;148532.38;5019765;28;20037;-67
2023/03/15 05:54:55;;;;;;;7.93;5.47;;;;;;;4.92;60.41;148546.41;5029290;28;20048;-67
2023/03/15 05:57:21;;;;;;;8.68;5.47;;;;;;;5.08;60.01;148584.72;5034273;28;20250;-68
2023/03/15 05:59:53;;;;;;;10.65;5.57;;;;;;;5.04;59.59;148574.50;5035252;28;20032;-67
2023/03/15 06:02:18;;;;;;;10.13;5.25;;;;;;;4.92;60.67;148546.41;5032738;28;20021;-68
2023/03/15 06:04:44;;;;;;;8.13;5.10;;;;;;;5.08;60.33;148584.72;5034528;28;20064;-69
2023/03/15 06:07:10;;;;;;;10.10;5.45;;;;;;;5.08;60.61;148584.72;5034982;28;20014;-67
2023/03/15 06:09:35;;;;;;;8.20;5.32;;;;;;;5.24;59.53;148625.56;5035172;28;20058;-67
2023/03/15 06:12:10;;;;;;;7.63;5.05;;;;;;;5.28;59.10;148634.53;5034412;28;20041;-68
2023/03/15 06:14:35;;;;;;;8.38;4.95;;;;;;;5.21;58.95;148616.66;5032526;28;20025;-67
2023/03/15 06:17:04;;;;;;;10.90;5.53;;;;;;;5.23;59.37;148621.75;5033801;28;20036;-68
2023/03/15 06:19:29;;;;;;;10.07;4.97;;;;;;;5.30;59.29;148639.63;5033627;28;20106;-68
2023/03/15 06:21:55;;;;;;;10.13;5.45;;;;;;;5.28;59.10;148635.78;5031680;28;20098;-69
2023/03/15 06:24:20;;;;;;;8.57;5.60;;;;;;;5.60;58.74;148715.00;5023514;28;20029;-67
2023/03/15 06:26:46;;;;;;;12.68;5.80;;;;;;;6.34;56.50;148899.03;5023078;28;20022;-68
2023/03/15 06:29:11;;;;;;;10.38;5.30;;;;;;;6.73;55.17;148994.91;5043461;28;20029;-68
2023/03/15 06:31:37;;;;;;;8.07;5.28;;;;;;;7.22;55.07;149117.66;5028161;28;20088;-68
2023/03/15 06:34:02;;;;;;;8.20;5.75;;;;;;;6.74;55.02;148997.44;5011002;28;20041;-69
2023/03/15 06:36:29;;;;;;;7.05;5.50;;;;;;;6.65;55.33;148974.44;5020359;28;20057;-68
2023/03/15 06:38:55;;;;;;;9.80;5.38;;;;;;;6.55;56.19;148950.16;5032010;28;20022;-68
2023/03/15 06:41:20;;;;;;;8.35;5.32;;;;;;;6.96;54.88;149051.19;5037431;28;20226;-69
2023/03/15 06:43:46;;;;;;;12.93;6.00;;;;;;;7.17;53.85;149103.59;5042675;28;20036;-68
2023/03/15 06:46:17;;;;;;;7.88;5.05;;;;;;;7.08;53.97;149081.84;5029844;28;20390;-71
2023/03/15 06:48:43;;;;;;;10.30;5.40;;;;;;;7.00;53.98;149062.69;5031425;28;20112;-69
2023/03/15 06:51:09;;;;;;;11.93;5.47;;;;;;;7.27;53.95;149129.19;5032716;28;20044;-68
2023/03/15 06:53:37;;;;;;;9.30;5.57;;;;;;;7.06;54.47;149078.00;5027722;28;20567;-69
2023/03/15 06:56:03;;;;;;;9.15;5.13;;;;;;;7.29;53.94;149133.03;5032964;28;20045;-70
2023/03/15 06:58:29;;;;;;;9.77;5.68;;;;;;;7.47;53.24;149179.09;5032632;28;20026;-69
2023/03/15 07:01:03;;;;;;;9.75;5.90;;;;;;;7.88;53.46;149280.16;5030252;28;20194;-69
2023/03/15 07:03:29;;;;;;;8.43;5.30;;;;;;;7.92;53.02;149290.38;5028212;28;20049;-69
2023/03/15 07:06:04;;;;;;;8.10;5.50;;;;;;;8.05;51.59;149323.69;5032143;28;20246;-68
2023/03/15 07:08:29;;;;;;;9.23;6.07;;;;;;;8.01;52.26;149313.44;5030704;28;20021;-69
2023/03/15 07:10:55;;;;;;;7.22;5.35;;;;;;;8.40;51.00;149409.44;5034007;28;20259;-69
2023/03/15 07:13:20;;;;;;;6.00;5.18;;;;;;;8.82;49.56;149514.47;5031033;28;20029;-69
2023/03/15 07:15:54;;;;;;;10.25;5.90;;;;;;;8.40;50.80;149410.72;5028970;28;20097;-68
2023/03/15 07:18:21;;;;;;;8.98;5.30;;;;;;;8.48;50.54;149428.69;5026638;28;20030;-70
2023/03/15 07:20:56;;;;;;;8.43;5.80;;;;;;;8.63;51.32;149467.09;5031886;28;20032;-68
2023/03/15 07:23:22;;;;;;;8.38;5.97;;;;;;;8.68;50.65;149479.94;5032225;28;20033;-68
2023/03/15 07:25:51;;;;;;;8.30;5.95;;;;;;;8.91;50.24;149536.28;5022811;28;20069;-69
2023/03/15 07:28:20;;;;;;;7.50;5.38;;;;;;;8.68;50.75;149478.63;5008615;28;20353;-68
2023/03/15 07:30:57;;;;;;;8.05;6.00;;;;;;;8.88;48.59;149528.56;5014861;28;20100;-70
2023/03/15 07:33:24;;;;;;;7.63;5.82;;;;;;;8.86;49.05;149523.44;5034612;28;20049;-69
2023/03/15 07:36:05;;;;;;;8.02;5.90;;;;;;;8.97;49.23;149551.63;5007036;28;20038;-72
2023/03/15 07:38:35;;;;;;;9.70;6.30;;;;;;;8.44;49.97;149419.69;5003264;28;20215;-70
2023/03/15 07:41:05;;;;;;;10.23;6.30;;;;;;;8.63;49.68;149467.09;5022160;28;20052;-70
2023/03/15 07:43:34;;;;;;;6.88;6.00;;;;;;;8.62;50.16;149464.53;5007700;28;20084;-69
2023/03/15 07:46:11;;;;;;;10.85;6.13;;;;;;;8.34;51.02;149395.38;5004330;28;20022;-69
2023/03/15 07:48:37;;;;;;;8.60;5.55;;;;;;;8.24;52.05;149371.03;4999427;28;20157;-68
2023/03/15 07:51:03;;;;;;;8.60;6.13;;;;;;;8.66;52.23;149474.78;5004832;28;20042;-68
2023/03/15 07:53:32;;;;;;;9.40;6.15;;;;;;;8.64;51.17;149470.94;5022696;28;20060;-67
2023/03/15 07:55:57;;;;;;;7.88;6.35;;;;;;;8.18;52.57;149355.69;5019093;28;20046;-69
2023/03/15 07:58:23;;;;;;;8.23;5.90;;;;;;;8.58;52.53;149455.59;5007758;28;20033;-69
2023/03/15 08:00:48;;;;;;;8.35;6.22;;;;;;;8.84;50.39;149519.63;5003766;28;20046;-69
2023/03/15 08:03:16;;;;;;;7.78;5.72;;;;;;;8.87;51.64;149527.28;5007039;28;20198;-69
2023/03/15 08:05:45;;;;;;;8.23;6.22;;;;;;;8.98;50.67;149554.22;5022417;28;20041;-69
2023/03/15 08:08:14;;;;;;;9.85;6.63;;;;;;;7.75;52.56;149249.47;5001900;28;20057;-69
2023/03/15 08:10:39;;;;;;;11.50;6.88;;;;;;;8.08;52.66;149330.06;5017879;28;20034;-67
2023/03/15 08:13:07;;;;;;;9.23;6.53;;;;;;;7.71;53.63;149239.22;5011322;28;20042;-68
2023/03/15 08:15:33;;;;;;;10.43;6.65;;;;;;;8.00;53.76;149309.63;5014675;28;20071;-70
2023/03/15 08:17:58;;;;;;;9.18;6.75;;;;;;;8.33;53.26;149392.78;5039861;28;20049;-68
2023/03/15 08:20:24;;;;;;;7.93;6.43;;;;;;;8.27;52.52;149377.44;5003731;28;20030;-68
2023/03/15 08:22:53;;;;;;;10.15;7.07;;;;;;;8.02;53.44;149314.72;5019341;28;20089;-68
2023/03/15 08:25:21;;;;;;;9.07;7.10;;;;;;;7.76;53.82;149252.00;5009746;28;20026;-69
2023/03/15 08:27:47;;;;;;;9.25;6.53;;;;;;;7.92;53.85;149290.38;5018778;28;20028;-69
2023/03/15 08:30:14;;;;;;;9.70;6.28;;;;;;;7.47;54.90;149179.09;5038761;28;20026;-68
2023/03/15 08:32:41;;;;;;;8.85;6.35;;;;;;;8.34;52.59;149395.38;5041064;28;20033;-68
2023/03/15 08:35:12;;;;;;;9.55;6.80;;;;;;;9.26;51.94;149623.34;5022760;28;20088;-69
2023/03/15 08:37:46;;;;;;;11.07;7.53;;;;;;;8.64;51.40;149469.69;5020867;28;20022;-69
2023/03/15 08:40:25;;;;;;;11.98;6.78;;;;;;;8.99;52.84;149556.72;5012296;28;20168;-68
2023/03/15 08:43:03;;;;;;;9.40;6.68;;;;;;;8.72;52.74;149490.19;5015376;28;20273;-68
2023/03/15 08:45:34;;;;;;;11.98;7.57;;;;;;;8.26;54.18;149374.88;5029420;28;20033;-69
2023/03/15 08:48:03;;;;;;;10.43;6.50;;;;;;;8.63;53.17;149467.09;5044461;28;20233;-67
2023/03/15 08:50:31;;;;;;;7.97;6.95;;;;;;;8.31;53.16;149387.69;5025833;28;20090;-69
2023/03/15 08:52:57;;;;;;;10.48;6.60;;;;;;;8.56;53.93;149449.19;5008572;28;20030;-70
2023/03/15 08:55:22;;;;;;;9.43;6.90;;;;;;;8.70;53.94;149485.03;5021031;28;20042;-68
2023/03/15 08:57:51;;;;;;;7.07;6.38;;;;;;;8.62;54.09;149465.84;5016621;28;20101;-68
2023/03/15 09:00:21;;;;;;;7.22;6.18;;;;;;;8.43;54.73;149418.38;5009501;28;20038;-69
2023/03/15 09:02:48;;;;;;;8.48;6.53;;;;;;;8.66;53.95;149474.78;5025652;28;20029;-68
2023/03/15 09:05:15;;;;;;;8.68;6.60;;;;;;;8.78;53.80;149505.53;5005868;28;20038;-68
2023/03/15 09:07:42;;;;;;;10.45;7.40;;;;;;;8.60;53.57;149459.44;5021970;28;20221;-69
2023/03/15 09:10:13;;;;;;;10.13;6.80;;;;;;;8.44;54.01;149419.69;5014827;28;20032;-69
2023/03/15 09:12:43;;;;;;;9.95;6.50;;;;;;;7.78;56.31;149257.13;5012025;28;20049;-68
2023/03/15 09:15:13;;;;;;;12.02;6.97;;;;;;;7.93;56.17;149292.97;5022608;28;20076;-67
2023/03/15 09:17:45;;;;;;;10.65;6.80;;;;;;;7.80;57.24;149260.97;5005543;28;20132;-69
2023/03/15 09:20:15;;;;;;;8.60;7.28;;;;;;;7.70;57.40;149236.66;5024111;28;20326;-69
2023/03/15 09:22:50;;;;;;;11.77;6.97;;;;;;;7.66;57.76;149225.16;5010291;28;20042;-68
2023/03/15 09:25:16;;;;;;;11.25;8.73;;;;;;;7.89;56.96;149283.97;5015024;28;20030;-69
2023/03/15 09:27:42;;;;;;;8.88;7.57;;;;;;;7.76;56.70;149252.00;5018245;28;20194;-70
2023/03/15 09:30:08;;;;;;;10.25;7.00;;;;;;;7.62;57.81;149214.91;5006075;28;20033;-69
2023/03/15 09:32:35;;;;;;;10.40;6.95;;;;;;;7.67;57.59;149228.97;5035500;28;20017;-69
2023/03/15 09:35:05;;;;;;;11.10;7.07;;;;;;;8.00;56.16;149310.88;5022983;28;20041;-68
2023/03/15 09:37:31;;;;;;;12.05;7.72;;;;;;;7.80;57.04;149259.72;5015771;28;20049;-68
2023/03/15 09:39:56;;;;;;;11.82;7.80;;;;;;;7.84;57.33;149269.91;5013673;28;20089;-68
2023/03/15 09:42:50;;;;;;;10.43;6.97;;;;;;;7.85;57.58;149273.78;5027925;28;20033;-68
2023/03/15 09:45:23;;;;;;;10.68;7.43;;;;;;;7.59;58.16;149208.50;5040480;28;20107;-67
2023/03/15 09:48:11;;;;;;;9.60;6.47;;;;;;;7.59;58.53;149208.50;5005178;28;20322;-68
2023/03/15 09:50:52;;;;;;;11.00;7.20;;;;;;;7.84;57.25;149269.91;5008094;28;20038;-68
2023/03/15 09:53:26;;;;;;;10.98;7.45;;;;;;;7.93;58.12;149294.22;5005094;28;20053;-68
2023/03/15 09:55:51;;;;;;;11.48;7.82;;;;;;;7.74;58.72;149245.63;5020379;28;20044;-68
2023/03/15 09:58:35;;;;;;;9.82;7.00;;;;;;;7.82;58.25;149264.81;5013114;28;20026;-68
2023/03/15 10:01:06;;;;;;;13.35;6.95;;;;;;;7.88;58.03;149280.16;5006754;28;20061;-68
2023/03/15 10:03:53;;;;;;;7.88;7.00;;;;;;;7.80;58.04;149260.97;5009879;28;20033;-68
2023/03/15 10:06:33;;;;;;;8.32;6.72;;;;;;;7.88;57.84;149280.16;5007898;28;20046;-68
2023/03/15 10:09:02;;;;;;;11.90;7.30;;;;;;;7.84;57.55;149269.91;5015187;28;20211;-69
2023/03/15 10:11:41;;;;;;;8.52;6.85;;;;;;;7.93;57.51;149294.22;5043778;28;20025;-68
2023/03/15 10:14:35;;;;;;;10.00;7.38;;;;;;;8.18;56.76;149354.38;5026109;28;20123;-68
2023/03/15 10:17:10;;;;;;;10.52;7.47;;;;;;;8.27;57.57;149377.44;5003107;28;20282;-68
2023/03/15 10:19:54;;;;;;;8.30;6.80;;;;;;;8.25;56.49;149372.28;5018311;28;20041;-68
2023/03/15 10:22:32;;;;;;;11.38;7.60;;;;;;;8.21;57.19;149363.38;5012613;28;20026;-69
2023/03/15 10:25:04;;;;;;;12.07;8.05;;;;;;;8.23;58.59;149367.19;5012895;28;20038;-68
2023/03/15 10:27:58;;;;;;;8.77;7.40;;;;;;;8.27;57.33;149378.72;5019250;28;20073;-68
2023/03/15 10:30:30;;;;;;;9.90;7.18;;;;;;;8.34;56.62;149395.38;5007487;28;20251;-70
2023/03/15 10:33:19;;;;;;;12.25;7.22;;;;;;;8.36;58.13;149400.47;5016893;28;20061;-69
2023/03/15 10:35:44;;;;;;;12.25;6.35;;;;;;;8.31;57.28;149387.69;5004361;28;20109;-69
2023/03/15 10:38:22;;;;;;;9.68;6.57;;;;;;;8.58;56.79;149455.59;5021172;28;20072;-69
2023/03/15 10:40:58;;;;;;;8.43;6.47;;;;;;;8.71;55.47;149487.59;5007308;28;20200;-70
2023/03/15 10:43:36;;;;;;;10.90;5.97;;;;;;;8.85;56.01;149522.19;5015553;28;20034;-68
2023/03/15 10:46:32;;;;;;;8.32;6.65;;;;;;;8.70;56.81;149485.03;5014443;28;20230;-68
2023/03/15 10:49:07;;;;;;;8.18;6.60;;;;;;;8.94;56.20;149545.22;5004223;28;20215;-71
2023/03/15 10:51:45;;;;;;;7.82;6.63;;;;;;;8.84;56.23;149518.34;5008265;28;20166;-68
2023/03/15 10:54:17;;;;;;;11.52;7.13;;;;;;;8.98;55.32;149555.47;5021752;28;20225;-71
2023/03/15 10:57:03;;;;;;;11.70;7.28;;;;;;;8.97;56.30;149552.91;5023250;28;20092;-69
2023/03/15 10:59:31;;;;;;;9.18;6.30;;;;;;;9.00;56.44;149559.31;5003830;28;20357;-69
2023/03/15 11:02:26;;;;;;;10.30;7.18;;;;;;;9.39;55.11;149655.38;5019221;28;20088;-68
2023/03/15 11:05:00;;;;;;;9.68;7.10;;;;;;;9.42;54.24;149663.06;5003434;28;20076;-69
2023/03/15 11:07:26;;;;;;;11.18;7.28;;;;;;;9.25;55.21;149620.78;5015180;28;20034;-68
2023/03/15 11:09:59;;;;;;;12.15;7.00;;;;;;;9.24;55.63;149618.25;5016117;28;20022;-69
2023/03/15 11:12:33;;;;;;;11.15;7.00;;;;;;;9.36;55.35;149648.97;5007183;28;20033;-69
2023/03/15 11:15:13;;;;;;;11.95;7.18;;;;;;;9.27;55.25;149627.19;5023127;28;20302;-69
2023/03/15 11:17:47;;;;;;;10.30;7.07;;;;;;;9.06;54.82;149574.66;5003207;28;20057;-69
2023/03/15 11:20:36;;;;;;;12.65;7.05;;;;;;;9.33;54.49;149641.28;5021751;28;20025;-70
2023/03/15 11:23:30;;;;;;;10.43;6.68;;;;;;;9.21;55.00;149611.84;5039752;28;20242;-68
2023/03/15 11:25:57;;;;;;;9.55;7.28;;;;;;;9.00;55.83;149559.31;5024527;28;20261;-69
2023/03/15 11:28:29;;;;;;;12.52;7.40;;;;;;;8.86;55.58;149523.44;5034133;28;20059;-68
2023/03/15 11:30:59;;;;;;;9.60;7.07;;;;;;;8.94;55.96;149545.22;5039604;28;20047;-69
2023/03/15 11:33:45;;;;;;;9.35;7.20;;;;;;;9.23;56.09;149615.69;5039251;28;20037;-68
2023/03/15 11:36:16;;;;;;;9.38;7.35;;;;;;;9.31;56.43;149637.44;5023057;28;20071;-69
2023/03/15 11:38:44;;;;;;;11.15;6.93;;;;;;;9.49;55.89;149682.31;5022807;28;20076;-70
2023/03/15 11:41:16;;;;;;;10.35;7.07;;;;;;;9.52;54.65;149688.72;5005138;28;20030;-69
2023/03/15 11:44:20;;;;;;;14.10;7.10;;;;;;;9.38;55.04;149652.81;5018082;28;20041;-69
2023/03/15 11:46:56;;;;;;;12.55;7.20;;;;;;;9.25;55.20;149622.09;5017429;28;20030;-70